sensor_id;sensor_type;location;lat;lon;timestamp;temperature;humidity
64718;DHT22;62506;46.070;14.492;2023-07-31T00:01:42;25.50;65.70
64718;DHT22;62506;46.070;14.492;2023-07-31T00:04:08;25.50;65.70
64718;DHT22;62506;46.070;14.492;2023-07-31T00:06:33;25.50;65.80
64718;DHT22;62506;46.070;14.492;2023-07-31T00:08:59;25.50;65.60
64718;DHT22;62506;46.070;14.492;2023-07-31T00:11:24;25.50;65.50
64718;DHT22;62506;46.070;14.492;2023-07-31T00:13:50;25.50;65.60
64718;DHT22;62506;46.070;14.492;2023-07-31T00:16:15;25.50;65.60
64718;DHT22;62506;46.070;14.492;2023-07-31T00:18:41;25.50;65.50
64718;DHT22;62506;46.070;14.492;2023-07-31T00:21:06;25.50;65.30
64718;DHT22;62506;46.070;14.492;2023-07-31T00:23:32;25.60;65.50
64718;DHT22;62506;46.070;14.492;2023-07-31T00:25:57;25.60;65.60
64718;DHT22;62506;46.070;14.492;2023-07-31T00:28:23;25.50;65.50
64718;DHT22;62506;46.070;14.492;2023-07-31T00:30:48;25.60;65.50
64718;DHT22;62506;46.070;14.492;2023-07-31T00:33:14;25.60;65.40
64718;DHT22;62506;46.070;14.492;2023-07-31T00:35:39;25.50;65.40
64718;DHT22;62506;46.070;14.492;2023-07-31T00:38:05;25.60;65.30
64718;DHT22;62506;46.070;14.492;2023-07-31T00:40:34;25.60;65.30
64718;DHT22;62506;46.070;14.492;2023-07-31T00:42:59;25.50;65.20
64718;DHT22;62506;46.070;14.492;2023-07-31T00:45:25;25.60;65.30
64718;DHT22;62506;46.070;14.492;2023-07-31T00:47:52;25.60;65.20
64718;DHT22;62506;46.070;14.492;2023-07-31T00:50:18;25.60;65.20
64718;DHT22;62506;46.070;14.492;2023-07-31T00:52:44;25.60;65.10
64718;DHT22;62506;46.070;14.492;2023-07-31T00:55:09;25.60;65.30
64718;DHT22;62506;46.070;14.492;2023-07-31T00:57:35;25.50;65.10
64718;DHT22;62506;46.070;14.492;2023-07-31T01:00:02;25.50;64.90
64718;DHT22;62506;46.070;14.492;2023-07-31T01:02:28;25.60;65.10
64718;DHT22;62506;46.070;14.492;2023-07-31T01:04:54;25.50;65.00
64718;DHT22;62506;46.070;14.492;2023-07-31T01:12:29;25.50;64.80
64718;DHT22;62506;46.070;14.492;2023-07-31T01:15:06;25.60;64.80
64718;DHT22;62506;46.070;14.492;2023-07-31T01:17:39;25.50;64.70
64718;DHT22;62506;46.070;14.492;2023-07-31T01:20:10;25.60;64.80
64718;DHT22;62506;46.070;14.492;2023-07-31T01:27:43;25.50;64.70
64718;DHT22;62506;46.070;14.492;2023-07-31T01:30:10;25.50;64.70
64718;DHT22;62506;46.070;14.492;2023-07-31T01:32:40;25.50;64.80
64718;DHT22;62506;46.070;14.492;2023-07-31T01:35:06;25.50;64.80
64718;DHT22;62506;46.070;14.492;2023-07-31T01:37:31;25.50;64.80
64718;DHT22;62506;46.070;14.492;2023-07-31T01:39:57;25.40;64.60
64718;DHT22;62506;46.070;14.492;2023-07-31T01:42:22;25.50;64.60
64718;DHT22;62506;46.070;14.492;2023-07-31T01:44:48;25.50;64.70
64718;DHT22;62506;46.070;14.492;2023-07-31T01:47:13;25.40;64.50
64718;DHT22;62506;46.070;14.492;2023-07-31T01:49:39;25.50;64.60
64718;DHT22;62506;46.070;14.492;2023-07-31T01:52:05;25.50;64.70
64718;DHT22;62506;46.070;14.492;2023-07-31T01:54:30;25.40;64.60
64718;DHT22;62506;46.070;14.492;2023-07-31T01:56:56;25.40;64.60
64718;DHT22;62506;46.070;14.492;2023-07-31T01:59:21;25.40;64.50
64718;DHT22;62506;46.070;14.492;2023-07-31T02:01:47;25.50;64.50
64718;DHT22;62506;46.070;14.492;2023-07-31T02:04:12;25.40;64.60
64718;DHT22;62506;46.070;14.492;2023-07-31T02:06:38;25.50;64.60
64718;DHT22;62506;46.070;14.492;2023-07-31T02:09:04;25.50;64.60
64718;DHT22;62506;46.070;14.492;2023-07-31T02:11:29;25.50;64.60
64718;DHT22;62506;46.070;14.492;2023-07-31T02:13:55;25.50;64.60
64718;DHT22;62506;46.070;14.492;2023-07-31T02:16:20;25.50;64.30
64718;DHT22;62506;46.070;14.492;2023-07-31T02:18:46;25.50;64.60
64718;DHT22;62506;46.070;14.492;2023-07-31T02:21:11;25.50;64.40
64718;DHT22;62506;46.070;14.492;2023-07-31T02:23:37;25.50;64.30
64718;DHT22;62506;46.070;14.492;2023-07-31T02:26:02;25.50;64.30
64718;DHT22;62506;46.070;14.492;2023-07-31T02:28:28;25.50;64.30
64718;DHT22;62506;46.070;14.492;2023-07-31T02:30:54;25.50;64.30
64718;DHT22;62506;46.070;14.492;2023-07-31T02:33:19;25.50;64.30
64718;DHT22;62506;46.070;14.492;2023-07-31T02:35:45;25.50;64.30
64718;DHT22;62506;46.070;14.492;2023-07-31T02:38:10;25.50;64.30
64718;DHT22;62506;46.070;14.492;2023-07-31T02:40:36;25.50;64.30
64718;DHT22;62506;46.070;14.492;2023-07-31T02:43:01;25.50;64.30
64718;DHT22;62506;46.070;14.492;2023-07-31T02:45:27;25.50;64.40
64718;DHT22;62506;46.070;14.492;2023-07-31T02:47:52;25.50;64.30
64718;DHT22;62506;46.070;14.492;2023-07-31T02:50:18;25.50;64.10
64718;DHT22;62506;46.070;14.492;2023-07-31T02:52:43;25.50;64.20
64718;DHT22;62506;46.070;14.492;2023-07-31T02:55:09;25.50;64.10
64718;DHT22;62506;46.070;14.492;2023-07-31T02:57:34;25.50;64.10
64718;DHT22;62506;46.070;14.492;2023-07-31T02:59:59;25.50;64.30
64718;DHT22;62506;46.070;14.492;2023-07-31T03:02:25;25.50;64.40
64718;DHT22;62506;46.070;14.492;2023-07-31T03:04:50;25.50;64.60
64718;DHT22;62506;46.070;14.492;2023-07-31T03:07:16;25.50;64.80
64718;DHT22;62506;46.070;14.492;2023-07-31T03:09:41;25.50;65.10
64718;DHT22;62506;46.070;14.492;2023-07-31T03:12:07;25.50;65.00
64718;DHT22;62506;46.070;14.492;2023-07-31T03:14:33;25.50;65.00
64718;DHT22;62506;46.070;14.492;2023-07-31T03:16:59;25.50;65.20
64718;DHT22;62506;46.070;14.492;2023-07-31T03:19:24;25.50;65.00
64718;DHT22;62506;46.070;14.492;2023-07-31T03:21:50;25.50;65.10
64718;DHT22;62506;46.070;14.492;2023-07-31T03:24:15;25.50;65.00
64718;DHT22;62506;46.070;14.492;2023-07-31T03:26:41;25.50;65.20
64718;DHT22;62506;46.070;14.492;2023-07-31T03:29:09;25.50;65.10
64718;DHT22;62506;46.070;14.492;2023-07-31T03:31:34;25.50;65.00
64718;DHT22;62506;46.070;14.492;2023-07-31T03:34:00;25.50;65.10
64718;DHT22;62506;46.070;14.492;2023-07-31T03:36:25;25.50;65.30
64718;DHT22;62506;46.070;14.492;2023-07-31T03:38:51;25.40;65.20
64718;DHT22;62506;46.070;14.492;2023-07-31T03:41:17;25.50;65.20
64718;DHT22;62506;46.070;14.492;2023-07-31T03:43:42;25.50;65.20
64718;DHT22;62506;46.070;14.492;2023-07-31T03:46:08;25.50;65.20
64718;DHT22;62506;46.070;14.492;2023-07-31T03:48:33;25.40;65.10
64718;DHT22;62506;46.070;14.492;2023-07-31T03:50:59;25.40;65.10
64718;DHT22;62506;46.070;14.492;2023-07-31T03:53:24;25.40;65.00
64718;DHT22;62506;46.070;14.492;2023-07-31T03:55:49;25.40;65.10
64718;DHT22;62506;46.070;14.492;2023-07-31T03:58:15;25.40;66.10
64718;DHT22;62506;46.070;14.492;2023-07-31T04:00:40;25.40;65.00
64718;DHT22;62506;46.070;14.492;2023-07-31T04:03:06;25.40;65.10
64718;DHT22;62506;46.070;14.492;2023-07-31T04:05:32;25.40;64.90
64718;DHT22;62506;46.070;14.492;2023-07-31T04:07:57;25.40;65.30
64718;DHT22;62506;46.070;14.492;2023-07-31T04:10:23;25.50;65.40
64718;DHT22;62506;46.070;14.492;2023-07-31T04:12:48;25.40;63.10
64718;DHT22;62506;46.070;14.492;2023-07-31T04:15:14;25.20;61.90
64718;DHT22;62506;46.070;14.492;2023-07-31T04:17:39;25.00;62.10
64718;DHT22;62506;46.070;14.492;2023-07-31T04:20:05;24.80;62.80
64718;DHT22;62506;46.070;14.492;2023-07-31T04:22:31;24.60;62.90
64718;DHT22;62506;46.070;14.492;2023-07-31T04:24:56;24.60;62.80
64718;DHT22;62506;46.070;14.492;2023-07-31T04:27:21;24.50;63.70
64718;DHT22;62506;46.070;14.492;2023-07-31T04:29:47;24.40;63.90
64718;DHT22;62506;46.070;14.492;2023-07-31T04:32:13;24.30;64.20
64718;DHT22;62506;46.070;14.492;2023-07-31T04:34:38;24.30;64.50
64718;DHT22;62506;46.070;14.492;2023-07-31T04:37:04;24.20;64.50
64718;DHT22;62506;46.070;14.492;2023-07-31T04:39:29;24.10;64.80
64718;DHT22;62506;46.070;14.492;2023-07-31T04:41:55;24.10;64.80
64718;DHT22;62506;46.070;14.492;2023-07-31T04:44:20;24.10;64.90
64718;DHT22;62506;46.070;14.492;2023-07-31T04:46:45;24.00;65.10
64718;DHT22;62506;46.070;14.492;2023-07-31T04:49:11;24.00;65.30
64718;DHT22;62506;46.070;14.492;2023-07-31T04:51:37;24.00;65.60
64718;DHT22;62506;46.070;14.492;2023-07-31T04:54:02;24.10;65.80
64718;DHT22;62506;46.070;14.492;2023-07-31T04:56:28;24.10;66.00
64718;DHT22;62506;46.070;14.492;2023-07-31T04:58:53;24.10;66.00
64718;DHT22;62506;46.070;14.492;2023-07-31T05:01:19;24.10;65.80
64718;DHT22;62506;46.070;14.492;2023-07-31T05:03:44;24.10;65.40
64718;DHT22;62506;46.070;14.492;2023-07-31T05:06:10;24.00;65.10
64718;DHT22;62506;46.070;14.492;2023-07-31T05:08:35;24.00;65.10
64718;DHT22;62506;46.070;14.492;2023-07-31T05:11:01;23.90;65.10
64718;DHT22;62506;46.070;14.492;2023-07-31T05:13:27;24.00;65.20
64718;DHT22;62506;46.070;14.492;2023-07-31T05:15:52;24.00;65.30
64718;DHT22;62506;46.070;14.492;2023-07-31T05:18:19;23.90;65.30
64718;DHT22;62506;46.070;14.492;2023-07-31T05:20:44;23.90;65.00
64718;DHT22;62506;46.070;14.492;2023-07-31T05:23:10;23.90;65.40
64718;DHT22;62506;46.070;14.492;2023-07-31T05:25:35;23.80;65.70
64718;DHT22;62506;46.070;14.492;2023-07-31T05:28:01;23.80;65.80
64718;DHT22;62506;46.070;14.492;2023-07-31T05:30:26;23.80;66.10
64718;DHT22;62506;46.070;14.492;2023-07-31T05:32:52;23.80;66.60
64718;DHT22;62506;46.070;14.492;2023-07-31T05:35:17;23.90;66.40
64718;DHT22;62506;46.070;14.492;2023-07-31T05:37:43;24.10;66.10
64718;DHT22;62506;46.070;14.492;2023-07-31T05:40:08;24.20;65.50
64718;DHT22;62506;46.070;14.492;2023-07-31T05:42:34;24.30;65.20
64718;DHT22;62506;46.070;14.492;2023-07-31T05:45:02;24.40;65.20
64718;DHT22;62506;46.070;14.492;2023-07-31T05:47:27;24.40;65.00
64718;DHT22;62506;46.070;14.492;2023-07-31T05:49:53;24.50;65.00
64718;DHT22;62506;46.070;14.492;2023-07-31T05:52:18;24.50;65.70
64718;DHT22;62506;46.070;14.492;2023-07-31T05:54:44;24.60;64.80
64718;DHT22;62506;46.070;14.492;2023-07-31T05:57:11;24.50;64.80
64718;DHT22;62506;46.070;14.492;2023-07-31T05:59:36;24.50;64.60
64718;DHT22;62506;46.070;14.492;2023-07-31T06:02:02;24.30;64.80
64718;DHT22;62506;46.070;14.492;2023-07-31T06:04:27;24.20;65.50
64718;DHT22;62506;46.070;14.492;2023-07-31T06:06:53;24.10;65.80
64718;DHT22;62506;46.070;14.492;2023-07-31T06:09:19;24.10;65.80
64718;DHT22;62506;46.070;14.492;2023-07-31T06:11:45;24.00;65.60
64718;DHT22;62506;46.070;14.492;2023-07-31T06:14:11;24.00;65.70
64718;DHT22;62506;46.070;14.492;2023-07-31T06:16:36;24.00;65.70
64718;DHT22;62506;46.070;14.492;2023-07-31T06:19:02;24.00;65.70
64718;DHT22;62506;46.070;14.492;2023-07-31T06:21:27;24.00;65.50
64718;DHT22;62506;46.070;14.492;2023-07-31T06:23:53;24.00;65.70
64718;DHT22;62506;46.070;14.492;2023-07-31T06:26:19;24.00;65.70
64718;DHT22;62506;46.070;14.492;2023-07-31T06:28:44;24.00;65.80
64718;DHT22;62506;46.070;14.492;2023-07-31T06:31:10;24.00;65.70
64718;DHT22;62506;46.070;14.492;2023-07-31T06:33:35;24.10;65.30
64718;DHT22;62506;46.070;14.492;2023-07-31T06:36:01;24.00;64.80
64718;DHT22;62506;46.070;14.492;2023-07-31T06:38:26;24.00;64.90
64718;DHT22;62506;46.070;14.492;2023-07-31T06:40:53;24.00;64.40
64718;DHT22;62506;46.070;14.492;2023-07-31T06:43:18;24.00;64.30
64718;DHT22;62506;46.070;14.492;2023-07-31T06:45:44;24.00;64.10
64718;DHT22;62506;46.070;14.492;2023-07-31T06:48:09;24.00;64.00
64718;DHT22;62506;46.070;14.492;2023-07-31T06:50:35;24.10;63.60
64718;DHT22;62506;46.070;14.492;2023-07-31T06:53:00;24.10;62.70
64718;DHT22;62506;46.070;14.492;2023-07-31T06:55:26;24.10;62.50
64718;DHT22;62506;46.070;14.492;2023-07-31T06:57:52;24.10;62.50
64718;DHT22;62506;46.070;14.492;2023-07-31T07:00:18;24.10;62.60
64718;DHT22;62506;46.070;14.492;2023-07-31T07:02:44;24.10;63.10
64718;DHT22;62506;46.070;14.492;2023-07-31T07:05:10;24.10;63.10
64718;DHT22;62506;46.070;14.492;2023-07-31T07:07:36;24.10;63.30
64718;DHT22;62506;46.070;14.492;2023-07-31T07:10:01;24.10;63.40
64718;DHT22;62506;46.070;14.492;2023-07-31T07:12:29;24.10;63.20
64718;DHT22;62506;46.070;14.492;2023-07-31T07:14:54;24.10;63.40
64718;DHT22;62506;46.070;14.492;2023-07-31T07:17:20;24.10;63.30
64718;DHT22;62506;46.070;14.492;2023-07-31T07:19:47;24.20;63.70
64718;DHT22;62506;46.070;14.492;2023-07-31T07:22:13;24.20;63.40
64718;DHT22;62506;46.070;14.492;2023-07-31T07:24:39;24.20;63.20
64718;DHT22;62506;46.070;14.492;2023-07-31T07:27:04;24.20;63.20
64718;DHT22;62506;46.070;14.492;2023-07-31T07:29:30;24.30;63.00
64718;DHT22;62506;46.070;14.492;2023-07-31T07:31:55;24.30;62.70
64718;DHT22;62506;46.070;14.492;2023-07-31T07:34:25;24.30;62.50
64718;DHT22;62506;46.070;14.492;2023-07-31T07:36:51;24.30;62.70
64718;DHT22;62506;46.070;14.492;2023-07-31T07:39:16;24.30;63.20
64718;DHT22;62506;46.070;14.492;2023-07-31T07:41:41;24.40;63.40
64718;DHT22;62506;46.070;14.492;2023-07-31T07:44:07;24.40;63.20
64718;DHT22;62506;46.070;14.492;2023-07-31T07:46:33;24.40;62.00
64718;DHT22;62506;46.070;14.492;2023-07-31T07:48:58;24.30;61.90
64718;DHT22;62506;46.070;14.492;2023-07-31T07:51:24;24.50;62.30
64718;DHT22;62506;46.070;14.492;2023-07-31T07:53:49;24.60;62.30
64718;DHT22;62506;46.070;14.492;2023-07-31T07:56:15;24.60;62.30
64718;DHT22;62506;46.070;14.492;2023-07-31T07:58:40;24.50;61.80
64718;DHT22;62506;46.070;14.492;2023-07-31T08:01:06;24.50;61.80
64718;DHT22;62506;46.070;14.492;2023-07-31T08:03:31;24.50;62.10
64718;DHT22;62506;46.070;14.492;2023-07-31T08:06:00;24.50;62.20
64718;DHT22;62506;46.070;14.492;2023-07-31T08:08:26;24.50;62.50
64718;DHT22;62506;46.070;14.492;2023-07-31T08:10:52;24.60;62.60
64718;DHT22;62506;46.070;14.492;2023-07-31T08:13:17;24.60;62.70
64718;DHT22;62506;46.070;14.492;2023-07-31T08:15:43;24.60;62.70
64718;DHT22;62506;46.070;14.492;2023-07-31T08:18:09;24.60;62.30
64718;DHT22;62506;46.070;14.492;2023-07-31T08:20:34;24.70;62.10
64718;DHT22;62506;46.070;14.492;2023-07-31T08:23:00;24.70;62.00
64718;DHT22;62506;46.070;14.492;2023-07-31T08:25:25;24.70;61.80
64718;DHT22;62506;46.070;14.492;2023-07-31T08:27:51;24.70;61.50
64718;DHT22;62506;46.070;14.492;2023-07-31T08:30:18;24.70;61.80
64718;DHT22;62506;46.070;14.492;2023-07-31T08:32:43;24.70;61.60
64718;DHT22;62506;46.070;14.492;2023-07-31T08:35:09;24.80;61.80
64718;DHT22;62506;46.070;14.492;2023-07-31T08:37:34;24.80;62.10
64718;DHT22;62506;46.070;14.492;2023-07-31T08:40:00;24.80;62.00
64718;DHT22;62506;46.070;14.492;2023-07-31T08:42:25;24.80;61.70
64718;DHT22;62506;46.070;14.492;2023-07-31T08:44:52;24.80;61.80
64718;DHT22;62506;46.070;14.492;2023-07-31T08:47:17;24.80;61.70
64718;DHT22;62506;46.070;14.492;2023-07-31T08:49:44;24.80;61.10
64718;DHT22;62506;46.070;14.492;2023-07-31T08:52:11;24.80;60.50
64718;DHT22;62506;46.070;14.492;2023-07-31T08:54:37;24.80;60.30
64718;DHT22;62506;46.070;14.492;2023-07-31T08:57:02;24.80;60.10
64718;DHT22;62506;46.070;14.492;2023-07-31T08:59:29;24.80;59.80
64718;DHT22;62506;46.070;14.492;2023-07-31T09:01:55;24.80;59.30
64718;DHT22;62506;46.070;14.492;2023-07-31T09:04:22;24.90;59.50
64718;DHT22;62506;46.070;14.492;2023-07-31T09:06:48;24.90;59.60
64718;DHT22;62506;46.070;14.492;2023-07-31T09:09:13;24.90;59.40
64718;DHT22;62506;46.070;14.492;2023-07-31T09:11:39;24.90;59.50
64718;DHT22;62506;46.070;14.492;2023-07-31T09:14:05;24.90;59.50
64718;DHT22;62506;46.070;14.492;2023-07-31T09:16:34;24.90;59.00
64718;DHT22;62506;46.070;14.492;2023-07-31T09:18:59;24.90;58.70
64718;DHT22;62506;46.070;14.492;2023-07-31T09:21:27;24.90;59.00
64718;DHT22;62506;46.070;14.492;2023-07-31T09:23:53;24.90;59.20
64718;DHT22;62506;46.070;14.492;2023-07-31T09:26:32;25.00;59.30
64718;DHT22;62506;46.070;14.492;2023-07-31T09:28:59;25.00;59.50
64718;DHT22;62506;46.070;14.492;2023-07-31T09:31:40;25.00;59.70
64718;DHT22;62506;46.070;14.492;2023-07-31T09:34:09;25.00;59.70
64718;DHT22;62506;46.070;14.492;2023-07-31T09:36:40;25.00;59.50
64718;DHT22;62506;46.070;14.492;2023-07-31T09:39:06;25.00;59.10
64718;DHT22;62506;46.070;14.492;2023-07-31T09:41:36;25.00;58.90
64718;DHT22;62506;46.070;14.492;2023-07-31T09:44:01;25.00;58.80
64718;DHT22;62506;46.070;14.492;2023-07-31T09:46:27;25.00;58.70
64718;DHT22;62506;46.070;14.492;2023-07-31T09:48:52;25.00;59.00
64718;DHT22;62506;46.070;14.492;2023-07-31T09:51:25;25.00;59.00
64718;DHT22;62506;46.070;14.492;2023-07-31T09:53:51;25.00;59.10
64718;DHT22;62506;46.070;14.492;2023-07-31T09:56:17;25.00;59.00
64718;DHT22;62506;46.070;14.492;2023-07-31T09:58:44;25.00;59.00
64718;DHT22;62506;46.070;14.492;2023-07-31T10:01:09;25.00;58.80
64718;DHT22;62506;46.070;14.492;2023-07-31T10:03:35;25.10;59.70
64718;DHT22;62506;46.070;14.492;2023-07-31T10:06:01;25.10;59.50
64718;DHT22;62506;46.070;14.492;2023-07-31T10:08:28;25.10;59.50
64718;DHT22;62506;46.070;14.492;2023-07-31T10:10:55;25.10;59.60
64718;DHT22;62506;46.070;14.492;2023-07-31T10:13:23;25.10;59.60
64718;DHT22;62506;46.070;14.492;2023-07-31T10:15:49;25.10;59.70
64718;DHT22;62506;46.070;14.492;2023-07-31T10:18:15;25.10;59.70
64718;DHT22;62506;46.070;14.492;2023-07-31T10:20:41;25.10;60.60
64718;DHT22;62506;46.070;14.492;2023-07-31T10:23:07;25.10;59.80
64718;DHT22;62506;46.070;14.492;2023-07-31T10:25:33;25.20;60.00
64718;DHT22;62506;46.070;14.492;2023-07-31T10:27:59;25.10;59.90
64718;DHT22;62506;46.070;14.492;2023-07-31T10:30:26;25.20;60.20
64718;DHT22;62506;46.070;14.492;2023-07-31T10:32:52;25.20;60.30
64718;DHT22;62506;46.070;14.492;2023-07-31T10:35:18;25.20;60.20
64718;DHT22;62506;46.070;14.492;2023-07-31T10:37:43;25.20;61.40
64718;DHT22;62506;46.070;14.492;2023-07-31T10:40:15;25.20;60.50
64718;DHT22;62506;46.070;14.492;2023-07-31T10:45:10;25.20;60.90
64718;DHT22;62506;46.070;14.492;2023-07-31T10:48:17;25.20;61.00
64718;DHT22;62506;46.070;14.492;2023-07-31T10:50:25;25.20;61.00
64718;DHT22;62506;46.070;14.492;2023-07-31T10:52:51;25.20;60.90
64718;DHT22;62506;46.070;14.492;2023-07-31T10:57:56;25.20;61.20
64718;DHT22;62506;46.070;14.492;2023-07-31T11:00:25;25.20;61.00
64718;DHT22;62506;46.070;14.492;2023-07-31T11:02:57;25.20;61.10
64718;DHT22;62506;46.070;14.492;2023-07-31T11:05:42;25.20;61.10
64718;DHT22;62506;46.070;14.492;2023-07-31T11:10:40;25.20;61.20
64718;DHT22;62506;46.070;14.492;2023-07-31T11:13:05;25.20;61.20
64718;DHT22;62506;46.070;14.492;2023-07-31T11:15:31;25.30;61.30
64718;DHT22;62506;46.070;14.492;2023-07-31T11:17:56;25.20;61.30
64718;DHT22;62506;46.070;14.492;2023-07-31T11:20:25;25.20;61.20
64718;DHT22;62506;46.070;14.492;2023-07-31T11:22:51;25.20;61.40
64718;DHT22;62506;46.070;14.492;2023-07-31T11:25:16;25.20;61.40
64718;DHT22;62506;46.070;14.492;2023-07-31T11:27:43;25.20;61.40
64718;DHT22;62506;46.070;14.492;2023-07-31T11:30:09;25.20;61.50
64718;DHT22;62506;46.070;14.492;2023-07-31T11:32:37;25.30;61.50
64718;DHT22;62506;46.070;14.492;2023-07-31T11:35:03;25.30;61.60
64718;DHT22;62506;46.070;14.492;2023-07-31T11:37:43;25.20;61.60
64718;DHT22;62506;46.070;14.492;2023-07-31T11:40:09;25.30;61.70
64718;DHT22;62506;46.070;14.492;2023-07-31T11:42:35;25.30;61.60
64718;DHT22;62506;46.070;14.492;2023-07-31T11:45:04;25.30;61.70
64718;DHT22;62506;46.070;14.492;2023-07-31T11:47:31;25.30;61.80
64718;DHT22;62506;46.070;14.492;2023-07-31T11:49:59;25.30;61.70
64718;DHT22;62506;46.070;14.492;2023-07-31T11:52:25;25.30;61.70
64718;DHT22;62506;46.070;14.492;2023-07-31T11:54:50;25.30;61.70
64718;DHT22;62506;46.070;14.492;2023-07-31T11:57:16;25.30;61.70
64718;DHT22;62506;46.070;14.492;2023-07-31T11:59:43;25.30;61.80
64718;DHT22;62506;46.070;14.492;2023-07-31T12:02:08;25.30;61.80
64718;DHT22;62506;46.070;14.492;2023-07-31T12:04:35;25.30;61.90
64718;DHT22;62506;46.070;14.492;2023-07-31T12:07:00;25.30;62.00
64718;DHT22;62506;46.070;14.492;2023-07-31T12:09:26;25.30;61.90
64718;DHT22;62506;46.070;14.492;2023-07-31T12:11:51;25.30;61.90
64718;DHT22;62506;46.070;14.492;2023-07-31T12:14:23;25.30;61.90
64718;DHT22;62506;46.070;14.492;2023-07-31T12:16:53;25.30;62.20
64718;DHT22;62506;46.070;14.492;2023-07-31T12:19:19;25.20;62.00
64718;DHT22;62506;46.070;14.492;2023-07-31T12:21:44;25.30;62.10
64718;DHT22;62506;46.070;14.492;2023-07-31T12:24:10;25.20;62.10
64718;DHT22;62506;46.070;14.492;2023-07-31T12:26:35;25.30;62.10
64718;DHT22;62506;46.070;14.492;2023-07-31T12:29:01;25.30;62.10
64718;DHT22;62506;46.070;14.492;2023-07-31T12:31:27;25.30;62.10
64718;DHT22;62506;46.070;14.492;2023-07-31T12:33:53;25.30;62.10
64718;DHT22;62506;46.070;14.492;2023-07-31T12:36:22;25.30;62.20
64718;DHT22;62506;46.070;14.492;2023-07-31T12:38:49;25.30;62.20
64718;DHT22;62506;46.070;14.492;2023-07-31T12:41:15;25.30;62.20
64718;DHT22;62506;46.070;14.492;2023-07-31T12:43:42;25.30;62.20
64718;DHT22;62506;46.070;14.492;2023-07-31T12:46:07;25.30;63.20
64718;DHT22;62506;46.070;14.492;2023-07-31T12:48:33;25.30;62.20
64718;DHT22;62506;46.070;14.492;2023-07-31T12:50:59;25.30;62.30
64718;DHT22;62506;46.070;14.492;2023-07-31T12:53:25;25.30;62.20
64718;DHT22;62506;46.070;14.492;2023-07-31T12:55:50;25.30;62.30
64718;DHT22;62506;46.070;14.492;2023-07-31T12:58:16;25.30;62.30
64718;DHT22;62506;46.070;14.492;2023-07-31T13:00:41;25.30;62.40
64718;DHT22;62506;46.070;14.492;2023-07-31T13:03:07;25.30;62.30
64718;DHT22;62506;46.070;14.492;2023-07-31T13:05:33;25.30;62.30
64718;DHT22;62506;46.070;14.492;2023-07-31T13:07:58;25.30;62.30
64718;DHT22;62506;46.070;14.492;2023-07-31T13:10:24;25.30;62.60
64718;DHT22;62506;46.070;14.492;2023-07-31T13:12:52;25.30;62.60
64718;DHT22;62506;46.070;14.492;2023-07-31T13:15:17;25.30;63.10
64718;DHT22;62506;46.070;14.492;2023-07-31T13:17:43;25.40;63.10
64718;DHT22;62506;46.070;14.492;2023-07-31T13:20:08;25.30;61.70
64718;DHT22;62506;46.070;14.492;2023-07-31T13:22:34;25.30;62.20
64718;DHT22;62506;46.070;14.492;2023-07-31T13:24:59;25.30;61.90
64718;DHT22;62506;46.070;14.492;2023-07-31T13:27:25;25.30;61.70
64718;DHT22;62506;46.070;14.492;2023-07-31T13:29:51;25.30;61.50
64718;DHT22;62506;46.070;14.492;2023-07-31T13:32:17;25.30;61.60
64718;DHT22;62506;46.070;14.492;2023-07-31T13:34:43;25.30;61.60
64718;DHT22;62506;46.070;14.492;2023-07-31T13:37:09;25.30;61.70
64718;DHT22;62506;46.070;14.492;2023-07-31T13:39:34;25.40;62.00
64718;DHT22;62506;46.070;14.492;2023-07-31T13:42:04;25.30;61.90
64718;DHT22;62506;46.070;14.492;2023-07-31T13:44:33;25.30;62.10
64718;DHT22;62506;46.070;14.492;2023-07-31T13:46:59;25.40;62.30
64718;DHT22;62506;46.070;14.492;2023-07-31T13:49:25;25.30;62.20
64718;DHT22;62506;46.070;14.492;2023-07-31T13:51:50;25.30;62.20
64718;DHT22;62506;46.070;14.492;2023-07-31T13:54:16;25.40;62.30
64718;DHT22;62506;46.070;14.492;2023-07-31T13:56:42;25.30;62.20
64718;DHT22;62506;46.070;14.492;2023-07-31T13:59:07;25.40;62.30
64718;DHT22;62506;46.070;14.492;2023-07-31T14:01:33;25.40;62.30
64718;DHT22;62506;46.070;14.492;2023-07-31T14:03:58;25.40;62.60
64718;DHT22;62506;46.070;14.492;2023-07-31T14:06:24;25.40;62.30
64718;DHT22;62506;46.070;14.492;2023-07-31T14:08:49;25.40;62.30
64718;DHT22;62506;46.070;14.492;2023-07-31T14:11:15;25.40;62.20
64718;DHT22;62506;46.070;14.492;2023-07-31T14:13:40;25.40;62.00
64718;DHT22;62506;46.070;14.492;2023-07-31T14:16:06;25.40;62.20
64718;DHT22;62506;46.070;14.492;2023-07-31T14:18:32;25.40;62.10
64718;DHT22;62506;46.070;14.492;2023-07-31T14:20:57;25.40;62.10
64718;DHT22;62506;46.070;14.492;2023-07-31T14:23:23;25.40;62.10
64718;DHT22;62506;46.070;14.492;2023-07-31T14:25:48;25.40;62.10
64718;DHT22;62506;46.070;14.492;2023-07-31T14:28:14;25.40;62.40
64718;DHT22;62506;46.070;14.492;2023-07-31T14:30:39;25.50;62.10
64718;DHT22;62506;46.070;14.492;2023-07-31T14:33:05;25.50;62.00
64718;DHT22;62506;46.070;14.492;2023-07-31T14:35:30;25.50;62.10
64718;DHT22;62506;46.070;14.492;2023-07-31T14:37:56;25.50;62.20
64718;DHT22;62506;46.070;14.492;2023-07-31T14:40:21;25.50;63.10
64718;DHT22;62506;46.070;14.492;2023-07-31T14:42:47;25.50;62.80
64718;DHT22;62506;46.070;14.492;2023-07-31T14:45:12;25.50;63.20
64718;DHT22;62506;46.070;14.492;2023-07-31T14:47:38;25.50;62.60
64718;DHT22;62506;46.070;14.492;2023-07-31T14:50:03;25.50;63.10
64718;DHT22;62506;46.070;14.492;2023-07-31T14:52:29;25.50;63.30
64718;DHT22;62506;46.070;14.492;2023-07-31T14:54:54;25.60;63.20
64718;DHT22;62506;46.070;14.492;2023-07-31T14:57:20;25.60;63.30
64718;DHT22;62506;46.070;14.492;2023-07-31T14:59:46;25.60;63.10
64718;DHT22;62506;46.070;14.492;2023-07-31T15:02:11;25.60;63.30
64718;DHT22;62506;46.070;14.492;2023-07-31T15:04:37;25.60;63.10
64718;DHT22;62506;46.070;14.492;2023-07-31T15:07:02;25.60;63.30
64718;DHT22;62506;46.070;14.492;2023-07-31T15:09:28;25.60;63.30
64718;DHT22;62506;46.070;14.492;2023-07-31T15:11:56;25.60;63.30
64718;DHT22;62506;46.070;14.492;2023-07-31T15:14:21;25.60;63.20
64718;DHT22;62506;46.070;14.492;2023-07-31T15:16:47;25.50;63.20
64718;DHT22;62506;46.070;14.492;2023-07-31T15:19:12;25.50;63.10
64718;DHT22;62506;46.070;14.492;2023-07-31T15:21:38;25.60;63.30
64718;DHT22;62506;46.070;14.492;2023-07-31T15:24:04;25.50;63.00
64718;DHT22;62506;46.070;14.492;2023-07-31T15:26:29;25.50;62.70